Time;durP1;ratioP1;P1;durP2;ratioP2;P2;SDS_P1;SDS_P2;PMS_P1;PMS_P2;Temp;Humidity;BMP_temperature;BMP_pressure;BME280_temperature;BME280_humidity;BME280_pressure;Samples;Min_cycle;Max_cycle;Signal;HPM_P1;HPM_P2
2022/03/12 00:02:20;;;;;;;9.77;9.47;;;1.60;86.30;;;;;;5060840;28;20292;-81
2022/03/12 00:04:49;;;;;;;9.60;9.30;;;1.60;86.60;;;;;;5066989;28;20203;-80
2022/03/12 00:07:19;;;;;;;9.67;9.37;;;1.60;86.40;;;;;;5068059;28;20237;-81
2022/03/12 00:10:00;;;;;;;9.80;9.50;;;1.50;86.50;;;;;;5064696;28;20227;-80
2022/03/12 00:12:37;;;;;;;9.70;9.40;;;1.50;86.60;;;;;;5063459;28;20257;-80
2022/03/12 00:15:22;;;;;;;9.73;9.43;;;1.50;86.70;;;;;;5063869;28;20257;-81
2022/03/12 00:17:53;;;;;;;9.70;9.40;;;1.50;87.20;;;;;;5062806;28;20223;-80
2022/03/12 00:20:23;;;;;;;9.90;9.60;;;1.40;87.00;;;;;;5057055;28;21119;-81
2022/03/12 00:23:00;;;;;;;10.03;9.73;;;1.40;86.20;;;;;;5069446;22;20235;-83
2022/03/12 00:25:38;;;;;;;9.80;9.50;;;1.40;86.40;;;;;;5039767;28;20329;-83
2022/03/12 00:28:09;;;;;;;9.60;9.30;;;1.40;86.40;;;;;;5041136;28;20223;-82
2022/03/12 00:30:57;;;;;;;9.80;9.50;;;1.40;86.50;;;;;;5041043;28;20223;-84
2022/03/12 00:33:25;;;;;;;9.60;9.30;;;1.40;86.60;;;;;;5059446;28;20321;-83
2022/03/12 00:36:41;;;;;;;9.60;9.30;;;1.30;86.70;;;;;;5062878;28;20223;-83
2022/03/12 00:39:47;;;;;;;9.70;9.40;;;1.20;86.90;;;;;;5033784;28;20266;-83
2022/03/12 00:42:20;;;;;;;9.53;9.23;;;1.20;86.70;;;;;;5063048;28;20238;-83
2022/03/12 00:44:56;;;;;;;9.50;9.20;;;1.20;86.90;;;;;;5063366;28;20265;-82
2022/03/12 00:47:26;;;;;;;9.57;9.27;;;1.30;86.90;;;;;;5062457;28;20234;-84
2022/03/12 00:49:54;;;;;;;9.87;9.57;;;1.30;87.30;;;;;;5064473;28;20231;-84
2022/03/12 00:52:22;;;;;;;9.73;9.43;;;1.20;86.90;;;;;;5062775;28;20242;-82
2022/03/12 00:54:50;;;;;;;9.60;9.30;;;1.20;87.30;;;;;;5062864;28;20231;-82
2022/03/12 00:57:23;;;;;;;9.93;9.63;;;1.10;86.90;;;;;;5062319;28;20262;-82
2022/03/12 00:59:51;;;;;;;9.47;9.17;;;1.00;86.60;;;;;;5076120;28;20284;-82
2022/03/12 01:02:20;;;;;;;9.90;9.60;;;1.00;87.20;;;;;;5065414;28;20234;-83
2022/03/12 01:04:49;;;;;;;9.70;9.40;;;1.00;87.20;;;;;;5066411;28;20241;-85
2022/03/12 01:07:19;;;;;;;9.70;9.40;;;1.00;86.90;;;;;;5065708;28;20223;-82
2022/03/12 01:09:49;;;;;;;9.77;9.47;;;0.90;86.90;;;;;;5066030;28;20318;-82
2022/03/12 01:12:17;;;;;;;10.03;9.73;;;1.00;87.70;;;;;;5063421;28;20243;-83
2022/03/12 01:14:46;;;;;;;9.70;9.40;;;0.90;87.30;;;;;;5061808;28;20234;-83
2022/03/12 01:17:22;;;;;;;9.63;9.33;;;0.90;87.30;;;;;;5072453;28;20274;-83
2022/03/12 01:19:53;;;;;;;9.70;9.40;;;0.90;86.90;;;;;;5076653;28;20231;-83
2022/03/12 01:22:21;;;;;;;9.90;9.60;;;0.90;86.90;;;;;;5077398;28;20245;-83
2022/03/12 01:24:52;;;;;;;9.60;9.30;;;0.80;86.70;;;;;;5069247;28;20241;-83
2022/03/12 01:27:22;;;;;;;9.80;9.50;;;0.80;86.70;;;;;;5066083;28;20241;-83
2022/03/12 01:29:54;;;;;;;9.70;9.40;;;0.80;86.30;;;;;;5067921;28;20259;-83
2022/03/12 01:32:24;;;;;;;9.63;9.33;;;0.80;86.30;;;;;;5077029;28;20231;-82
2022/03/12 01:34:52;;;;;;;9.90;9.60;;;0.80;87.10;;;;;;5075509;28;20241;-83
2022/03/12 01:37:20;;;;;;;10.10;9.80;;;0.80;86.70;;;;;;5071744;28;20285;-83
2022/03/12 01:39:49;;;;;;;9.63;9.33;;;0.80;86.80;;;;;;5063151;28;20230;-83
2022/03/12 01:42:21;;;;;;;9.77;9.47;;;0.80;87.00;;;;;;5062280;28;20234;-83
2022/03/12 01:44:51;;;;;;;9.63;9.33;;;0.80;86.90;;;;;;5062772;28;20235;-82
2022/03/12 01:47:20;;;;;;;9.63;9.33;;;0.80;86.90;;;;;;5061675;28;20223;-83
2022/03/12 01:49:49;;;;;;;9.83;9.53;;;0.80;87.20;;;;;;5061878;28;20222;-83
2022/03/12 01:52:22;;;;;;;9.80;9.50;;;0.70;87.10;;;;;;5061499;28;20230;-83
2022/03/12 01:54:55;;;;;;;10.10;9.80;;;0.80;87.40;;;;;;5043232;28;20274;-83
2022/03/12 01:57:23;;;;;;;9.90;9.60;;;0.80;86.80;;;;;;5043770;28;20245;-83
2022/03/12 01:59:56;;;;;;;9.80;9.50;;;0.70;87.00;;;;;;5043119;28;20231;-83
2022/03/12 02:02:23;;;;;;;9.93;9.63;;;0.70;87.10;;;;;;5043139;28;20283;-83
2022/03/12 02:05:05;;;;;;;9.80;9.50;;;0.70;87.30;;;;;;5043382;28;20239;-83
2022/03/12 02:07:40;;;;;;;10.00;9.70;;;0.60;87.60;;;;;;5042513;28;20246;-82
2022/03/12 02:10:20;;;;;;;9.90;9.60;;;0.60;87.50;;;;;;5042030;28;20231;-83
2022/03/12 02:12:51;;;;;;;9.70;9.40;;;0.50;86.50;;;;;;5042028;28;20231;-82
2022/03/12 02:15:22;;;;;;;9.90;9.60;;;0.50;87.20;;;;;;5041667;28;20236;-82
2022/03/12 02:17:59;;;;;;;9.90;9.60;;;0.50;87.50;;;;;;5042905;28;20298;-83
2022/03/12 02:20:27;;;;;;;9.83;9.53;;;0.50;87.20;;;;;;5041500;28;20431;-82
2022/03/12 02:22:55;;;;;;;9.90;9.60;;;0.50;87.50;;;;;;5041255;28;20240;-82
2022/03/12 02:25:33;;;;;;;9.90;9.60;;;0.50;87.70;;;;;;5045437;28;20293;-82
2022/03/12 02:28:04;;;;;;;9.73;9.43;;;0.50;87.90;;;;;;5060565;28;20234;-82
2022/03/12 02:30:42;;;;;;;9.80;9.50;;;0.40;89.30;;;;;;5060604;28;20238;-83
2022/03/12 02:33:13;;;;;;;9.97;9.67;;;0.30;89.10;;;;;;5060512;28;20249;-83
2022/03/12 02:35:44;;;;;;;10.00;9.70;;;0.30;89.20;;;;;;5060912;28;20227;-82
2022/03/12 02:38:12;;;;;;;9.63;9.33;;;0.30;89.30;;;;;;5061547;28;20241;-82
2022/03/12 02:40:44;;;;;;;9.70;9.40;;;0.20;89.50;;;;;;5060843;28;20223;-82
2022/03/12 02:43:14;;;;;;;9.77;9.47;;;0.30;89.50;;;;;;5060081;28;20299;-82
2022/03/12 02:45:48;;;;;;;9.83;9.53;;;0.20;89.80;;;;;;5061333;28;20234;-82
2022/03/12 02:48:16;;;;;;;9.73;9.43;;;0.20;89.50;;;;;;5064259;28;20238;-84
2022/03/12 02:50:47;;;;;;;9.80;9.50;;;0.20;89.50;;;;;;5061207;28;20231;-81
2022/03/12 02:53:15;;;;;;;9.80;9.50;;;0.20;89.50;;;;;;5060084;28;20253;-82
2022/03/12 02:55:46;;;;;;;9.83;9.53;;;0.10;90.30;;;;;;5060635;28;20235;-82
2022/03/12 02:58:16;;;;;;;9.70;9.40;;;0.10;89.80;;;;;;5060906;28;21120;-82
2022/03/12 03:00:44;;;;;;;9.63;9.33;;;0.10;89.70;;;;;;5060581;28;20254;-82
2022/03/12 03:03:12;;;;;;;9.73;9.43;;;0.10;90.00;;;;;;5060447;28;20808;-82
2022/03/12 03:05:47;;;;;;;9.80;9.50;;;0.10;90.00;;;;;;5060804;28;20300;-83
2022/03/12 03:08:21;;;;;;;9.80;9.50;;;0.10;90.10;;;;;;5060086;28;20277;-83
2022/03/12 03:10:53;;;;;;;9.87;9.57;;;0.20;90.10;;;;;;5062670;28;20238;-83
2022/03/12 03:13:38;;;;;;;9.70;9.40;;;0.20;90.10;;;;;;5060306;28;20337;-83
2022/03/12 03:16:10;;;;;;;9.90;9.60;;;0.20;90.50;;;;;;5060665;28;20234;-83
2022/03/12 03:18:40;;;;;;;10.00;9.70;;;0.10;90.50;;;;;;5060653;28;20227;-83
2022/03/12 03:21:12;;;;;;;10.00;9.70;;;0.00;90.50;;;;;;5060034;28;20219;-83
2022/03/12 03:23:45;;;;;;;10.00;9.70;;;0.00;90.80;;;;;;5059879;28;20702;-83
2022/03/12 03:26:15;;;;;;;9.97;9.67;;;0.00;91.10;;;;;;5060867;28;20231;-83
2022/03/12 03:28:43;;;;;;;9.80;9.50;;;0.00;90.90;;;;;;5060269;28;20231;-83
2022/03/12 03:31:14;;;;;;;9.90;9.60;;;-0.10;91.20;;;;;;5073616;28;20229;-83
2022/03/12 03:33:42;;;;;;;9.97;9.67;;;-0.10;91.10;;;;;;5061987;28;20266;-83
2022/03/12 03:36:09;;;;;;;10.00;9.70;;;-0.20;91.60;;;;;;5064382;28;20230;-83
2022/03/12 03:38:45;;;;;;;10.13;9.83;;;-0.30;91.20;;;;;;5062160;28;20226;-83
2022/03/12 03:41:17;;;;;;;10.00;9.70;;;-0.30;91.10;;;;;;5060994;28;20223;-83
2022/03/12 03:43:49;;;;;;;9.77;9.47;;;-0.30;91.10;;;;;;5061233;28;20237;-84
2022/03/12 03:46:20;;;;;;;9.70;9.40;;;-0.30;91.00;;;;;;5061384;28;20243;-84
2022/03/12 03:48:52;;;;;;;9.80;9.50;;;-0.20;91.30;;;;;;5060465;28;20230;-83
2022/03/12 03:51:26;;;;;;;9.90;9.60;;;-0.10;91.10;;;;;;5060809;28;20258;-83
2022/03/12 03:53:56;;;;;;;9.80;9.50;;;-0.10;91.50;;;;;;5060335;28;20231;-84
2022/03/12 03:56:25;;;;;;;9.67;9.37;;;-0.20;91.40;;;;;;5060353;28;20300;-83
2022/03/12 03:58:53;;;;;;;9.70;9.40;;;-0.30;91.80;;;;;;5059988;28;20269;-83
2022/03/12 04:01:27;;;;;;;9.90;9.60;;;-0.30;92.50;;;;;;5060276;28;20227;-83
2022/03/12 04:03:56;;;;;;;9.97;9.67;;;-0.30;92.20;;;;;;5060305;28;20227;-83
2022/03/12 04:06:25;;;;;;;9.70;9.40;;;-0.30;92.00;;;;;;5060612;28;20271;-84
2022/03/12 04:08:54;;;;;;;9.87;9.57;;;-0.20;92.10;;;;;;5062856;28;20245;-83
2022/03/12 04:11:29;;;;;;;9.90;9.60;;;-0.30;92.40;;;;;;5066454;28;20250;-84
2022/03/12 04:14:02;;;;;;;9.60;9.30;;;-0.40;92.30;;;;;;5063522;28;20244;-83
2022/03/12 04:16:31;;;;;;;10.00;9.70;;;-0.40;92.30;;;;;;5063622;28;20215;-83
2022/03/12 04:18:59;;;;;;;9.80;9.50;;;-0.30;92.30;;;;;;5064395;28;20223;-83
2022/03/12 04:21:29;;;;;;;9.73;9.43;;;-0.30;92.50;;;;;;5063311;28;20235;-83
2022/03/12 04:23:57;;;;;;;9.77;9.47;;;-0.10;92.30;;;;;;5063073;28;20284;-84
2022/03/12 04:26:27;;;;;;;9.80;9.50;;;-0.10;92.30;;;;;;5063638;28;20325;-83
2022/03/12 04:28:57;;;;;;;9.83;9.53;;;-0.10;92.40;;;;;;5062757;28;20282;-83
2022/03/12 04:31:28;;;;;;;10.03;9.73;;;-0.10;92.50;;;;;;5063069;28;20278;-84
2022/03/12 04:33:56;;;;;;;9.80;9.50;;;-0.10;92.70;;;;;;5063137;28;20262;-84
2022/03/12 04:36:25;;;;;;;9.60;9.30;;;-0.10;92.80;;;;;;5063234;28;20245;-83
2022/03/12 04:38:54;;;;;;;9.90;9.60;;;0.00;92.90;;;;;;5063303;28;20234;-83
2022/03/12 04:41:23;;;;;;;9.90;9.60;;;0.00;92.90;;;;;;5062763;28;20258;-83
2022/03/12 04:43:54;;;;;;;9.90;9.60;;;0.00;92.90;;;;;;5064870;28;20291;-83
2022/03/12 04:46:22;;;;;;;9.80;9.50;;;0.00;92.90;;;;;;5065656;28;20230;-83
2022/03/12 04:48:50;;;;;;;9.53;9.23;;;0.00;92.90;;;;;;5064149;28;20281;-83
2022/03/12 04:51:20;;;;;;;9.70;9.40;;;0.00;93.00;;;;;;5064016;28;20231;-83
2022/03/12 04:53:50;;;;;;;9.70;9.40;;;0.10;93.10;;;;;;5066347;28;20258;-84
2022/03/12 04:56:19;;;;;;;9.90;9.60;;;0.10;93.10;;;;;;5069325;28;20291;-83
2022/03/12 04:58:53;;;;;;;9.73;9.43;;;0.10;93.10;;;;;;5065076;28;20653;-83
2022/03/12 05:01:22;;;;;;;9.80;9.50;;;0.10;93.10;;;;;;5064940;28;20222;-83
2022/03/12 05:03:50;;;;;;;9.50;9.20;;;0.10;93.30;;;;;;5063892;28;20241;-83
2022/03/12 05:06:19;;;;;;;9.90;9.60;;;0.10;93.30;;;;;;5064346;28;20227;-83
2022/03/12 05:08:47;;;;;;;9.60;9.30;;;0.10;93.30;;;;;;5063781;28;20250;-83
2022/03/12 05:11:16;;;;;;;9.70;9.40;;;0.10;93.50;;;;;;5063093;28;20258;-83
2022/03/12 05:13:46;;;;;;;9.30;9.00;;;0.10;93.70;;;;;;5063016;28;20241;-83
2022/03/12 05:16:15;;;;;;;9.80;9.50;;;0.10;94.10;;;;;;5062844;28;20230;-83
2022/03/12 05:18:45;;;;;;;10.10;9.80;;;0.10;94.40;;;;;;5063221;28;20234;-83
2022/03/12 05:21:15;;;;;;;10.10;9.80;;;0.10;94.40;;;;;;5062847;28;20231;-84
2022/03/12 05:23:44;;;;;;;10.10;9.80;;;0.10;94.20;;;;;;5063253;28;20261;-83
2022/03/12 05:26:14;;;;;;;9.80;9.50;;;0.10;93.80;;;;;;5063618;28;20231;-83
2022/03/12 05:28:45;;;;;;;9.90;9.60;;;0.10;93.90;;;;;;5071936;28;20239;-84
2022/03/12 05:31:21;;;;;;;9.90;9.60;;;0.10;94.20;;;;;;5068413;28;20218;-83
2022/03/12 05:33:53;;;;;;;10.20;9.90;;;0.10;94.10;;;;;;5065617;28;20284;-83
2022/03/12 05:36:20;;;;;;;10.10;9.80;;;0.10;94.40;;;;;;5063711;28;20230;-83
2022/03/12 05:41:41;;;;;;;10.00;9.70;;;0.10;94.60;;;;;;5059555;28;20229;-83
2022/03/12 05:44:14;;;;;;;9.83;9.53;;;0.10;94.40;;;;;;5060020;28;20292;-83
2022/03/12 05:46:48;;;;;;;10.07;9.77;;;0.10;94.40;;;;;;5062210;28;20249;-84
2022/03/12 05:49:19;;;;;;;9.93;9.63;;;0.10;95.20;;;;;;5062860;28;20235;-83
2022/03/12 05:51:46;;;;;;;9.80;9.50;;;0.10;95.20;;;;;;5060945;28;20233;-84
2022/03/12 05:54:14;;;;;;;9.70;9.40;;;0.10;95.00;;;;;;5059822;28;20244;-83
2022/03/12 05:56:45;;;;;;;9.97;9.67;;;0.20;95.60;;;;;;5059467;28;20241;-83
2022/03/12 05:59:13;;;;;;;10.00;9.70;;;0.20;96.10;;;;;;5060898;28;20235;-83
2022/03/12 06:01:44;;;;;;;10.07;9.77;;;0.20;95.30;;;;;;5061009;28;20230;-84
2022/03/12 06:04:11;;;;;;;9.80;9.50;;;0.30;94.60;;;;;;5061443;28;20245;-84
2022/03/12 06:06:48;;;;;;;9.90;9.60;;;0.30;94.70;;;;;;5061960;28;20686;-83
2022/03/12 06:09:18;;;;;;;9.80;9.50;;;0.40;94.60;;;;;;5061143;28;20333;-83
2022/03/12 06:11:49;;;;;;;9.70;9.40;;;0.40;94.10;;;;;;5061927;28;20226;-84
2022/03/12 06:14:19;;;;;;;9.80;9.50;;;0.30;94.60;;;;;;5061274;28;20313;-84
2022/03/12 06:16:48;;;;;;;9.90;9.60;;;0.10;94.10;;;;;;5064039;28;20233;-83
2022/03/12 06:19:19;;;;;;;9.80;9.50;;;0.00;94.60;;;;;;5061459;28;20227;-83
2022/03/12 06:21:48;;;;;;;9.67;9.37;;;-0.10;95.70;;;;;;5083457;22;20242;-81
2022/03/12 06:24:16;;;;;;;9.80;9.50;;;-0.10;95.10;;;;;;5025647;28;20236;-81
2022/03/12 06:26:44;;;;;;;9.90;9.60;;;-0.10;94.40;;;;;;5030864;28;20247;-82
2022/03/12 06:29:13;;;;;;;9.90;9.60;;;0.00;94.00;;;;;;5031563;28;20236;-82
2022/03/12 06:31:42;;;;;;;9.70;9.40;;;0.00;93.90;;;;;;5041436;28;20239;-81
2022/03/12 06:34:12;;;;;;;9.70;9.40;;;0.10;93.90;;;;;;5024936;28;20263;-81
2022/03/12 06:36:42;;;;;;;9.70;9.40;;;0.20;93.40;;;;;;5040752;28;20292;-80
2022/03/12 06:39:13;;;;;;;10.00;9.70;;;0.30;92.90;;;;;;5032650;28;20236;-81
2022/03/12 06:41:43;;;;;;;9.60;9.30;;;0.40;92.40;;;;;;5025043;28;20228;-81
2022/03/12 06:44:12;;;;;;;9.97;9.67;;;0.40;92.30;;;;;;5030403;28;20231;-80
2022/03/12 06:46:40;;;;;;;9.63;9.33;;;0.50;92.60;;;;;;5043491;28;20231;-80
2022/03/12 06:49:08;;;;;;;9.70;9.40;;;0.60;91.70;;;;;;5043218;28;20262;-82
2022/03/12 06:51:38;;;;;;;9.80;9.50;;;0.60;91.30;;;;;;5042791;28;20236;-81
2022/03/12 06:54:08;;;;;;;9.60;9.30;;;0.70;91.60;;;;;;5043318;28;20227;-80
2022/03/12 06:56:39;;;;;;;9.70;9.40;;;0.70;91.20;;;;;;5044521;28;20258;-81
2022/03/12 06:59:07;;;;;;;9.57;9.27;;;0.70;90.90;;;;;;5043715;28;20226;-80
2022/03/12 07:01:35;;;;;;;9.73;9.43;;;0.70;90.80;;;;;;5043536;28;20242;-81
2022/03/12 07:04:06;;;;;;;9.70;9.40;;;0.80;90.50;;;;;;5054389;28;20239;-79
2022/03/12 07:06:35;;;;;;;9.77;9.47;;;0.80;90.40;;;;;;5048141;28;20262;-80
2022/03/12 07:09:04;;;;;;;9.60;9.30;;;0.80;90.50;;;;;;5042238;28;20837;-81
2022/03/12 07:11:34;;;;;;;9.60;9.30;;;0.80;90.50;;;;;;5027602;28;20308;-82
2022/03/12 07:14:04;;;;;;;9.77;9.47;;;0.80;90.30;;;;;;5027406;28;20243;-79
2022/03/12 07:16:32;;;;;;;9.60;9.30;;;0.90;90.50;;;;;;5038460;28;20258;-79
2022/03/12 07:19:01;;;;;;;9.57;9.27;;;1.00;90.30;;;;;;5037768;28;20232;-78
2022/03/12 07:21:33;;;;;;;9.50;9.20;;;1.00;90.70;;;;;;5038964;28;20222;-78
2022/03/12 07:24:00;;;;;;;9.67;9.37;;;1.10;90.20;;;;;;5038130;28;20240;-79
2022/03/12 07:26:30;;;;;;;9.50;9.20;;;1.20;90.40;;;;;;5038042;28;20240;-79
2022/03/12 07:28:59;;;;;;;9.60;9.30;;;1.20;90.60;;;;;;5037938;28;20228;-79
2022/03/12 07:31:41;;;;;;;9.90;9.60;;;1.30;90.70;;;;;;5036056;28;20235;-81
2022/03/12 07:34:09;;;;;;;9.80;9.50;;;1.40;90.60;;;;;;5026907;28;20239;-81
2022/03/12 07:36:37;;;;;;;9.90;9.60;;;1.50;90.70;;;;;;5025774;28;20231;-80
2022/03/12 07:39:06;;;;;;;9.70;9.40;;;1.50;91.00;;;;;;5029884;28;20231;-80
2022/03/12 07:41:36;;;;;;;9.70;9.40;;;1.60;90.60;;;;;;5026053;28;20220;-80
2022/03/12 07:44:05;;;;;;;10.00;9.70;;;1.70;91.10;;;;;;5023666;28;20375;-80
2022/03/12 07:46:37;;;;;;;9.60;9.30;;;1.70;90.30;;;;;;5025241;28;20234;-81
2022/03/12 07:49:07;;;;;;;9.95;9.65;;;1.90;92.60;;;;;;5025411;28;20394;-84
2022/03/12 07:51:35;;;;;;;9.60;9.30;;;2.10;91.10;;;;;;5029816;28;20243;-83
2022/03/12 07:54:06;;;;;;;9.80;9.50;;;2.20;90.10;;;;;;5029891;28;20255;-84
2022/03/12 07:56:36;;;;;;;9.80;9.50;;;2.30;90.30;;;;;;5031652;28;20303;-84
2022/03/12 07:59:04;;;;;;;9.73;9.43;;;2.40;89.60;;;;;;5027052;28;20224;-85
2022/03/12 08:01:35;;;;;;;10.20;9.90;;;2.40;89.00;;;;;;5025982;28;20208;-86
2022/03/12 08:04:03;;;;;;;10.03;9.73;;;2.50;89.10;;;;;;5025450;28;20239;-85
2022/03/12 08:06:33;;;;;;;9.90;9.60;;;2.50;89.20;;;;;;5025583;28;20240;-85
2022/03/12 08:09:09;;;;;;;10.10;9.80;;;2.60;89.20;;;;;;5023739;28;20228;-86
2022/03/12 08:12:18;;;;;;;10.10;9.80;;;2.70;89.80;;;;;;5024750;28;20238;-86
2022/03/12 08:14:46;;;;;;;9.90;9.60;;;2.80;89.80;;;;;;5025640;28;20236;-83
2022/03/12 08:17:25;;;;;;;9.90;9.60;;;3.00;88.10;;;;;;5025073;28;20251;-83
2022/03/12 08:20:13;;;;;;;9.97;9.67;;;3.10;88.20;;;;;;5023161;28;20236;-82
2022/03/12 08:23:09;;;;;;;10.03;9.73;;;3.30;87.30;;;;;;5023058;28;20228;-83
2022/03/12 08:25:37;;;;;;;10.00;9.70;;;3.50;87.20;;;;;;5021749;28;20238;-85
2022/03/12 08:28:25;;;;;;;10.03;9.73;;;3.50;86.40;;;;;;5022899;28;20248;-85
2022/03/12 08:34:07;;;;;;;10.20;9.90;;;3.70;86.70;;;;;;5021853;28;20224;-86
2022/03/12 08:42:43;;;;;;;10.50;10.20;;;4.10;85.60;;;;;;5021070;28;20240;-85
2022/03/12 08:45:29;;;;;;;10.10;9.80;;;4.20;86.00;;;;;;5024409;28;20273;-83
2022/03/12 08:48:38;;;;;;;;;;;;;;;;;;;;;
2022/03/12 09:15:42;;;;;;;10.20;9.90;;;5.80;82.70;;;;;;5066825;28;20281;-84
2022/03/12 09:18:35;;;;;;;10.20;9.90;;;5.90;80.00;;;;;;5066894;28;20266;-84
2022/03/12 09:21:26;;;;;;;10.10;9.80;;;5.90;80.10;;;;;;5067126;28;20234;-86
2022/03/12 09:24:16;;;;;;;10.10;9.80;;;6.10;80.30;;;;;;5066926;28;20287;-84
2022/03/12 09:26:59;;;;;;;9.90;9.60;;;6.20;79.10;;;;;;5066646;28;20242;-85
2022/03/12 09:33:05;;;;;;;10.10;9.80;;;6.30;78.80;;;;;;5065282;28;20243;-85
2022/03/12 09:35:53;;;;;;;10.10;9.80;;;6.30;78.40;;;;;;5066414;28;20241;-84
2022/03/12 09:39:17;;;;;;;10.00;9.70;;;6.50;81.70;;;;;;5064932;28;20675;-88
2022/03/12 09:54:33;;;;;;;10.20;9.90;;;7.80;78.00;;;;;;5024989;28;20243;-84
2022/03/12 09:57:12;;;;;;;10.20;9.90;;;8.10;75.90;;;;;;5027794;28;20224;-83
2022/03/12 09:59:51;;;;;;;10.20;9.90;;;8.10;77.50;;;;;;5027331;28;20235;-84
2022/03/12 10:02:27;;;;;;;10.27;9.97;;;8.40;76.20;;;;;;5017732;28;20327;-84
2022/03/12 10:08:01;;;;;;;10.03;9.73;;;8.20;75.00;;;;;;5043740;28;20227;-83
2022/03/12 10:10:31;;;;;;;10.00;9.70;;;8.10;76.90;;;;;;5051683;28;20242;-83
2022/03/12 10:13:04;;;;;;;10.10;9.80;;;8.20;75.50;;;;;;5058226;28;20216;-84
2022/03/12 10:18:27;;;;;;;9.90;9.60;;;7.90;75.00;;;;;;5059230;28;20231;-83
2022/03/12 10:21:03;;;;;;;10.07;9.77;;;8.00;76.70;;;;;;5059724;28;20258;-83
2022/03/12 10:23:35;;;;;;;10.20;9.90;;;8.20;74.80;;;;;;5059428;28;20238;-84
2022/03/12 10:28:49;;;;;;;9.80;9.50;;;8.30;74.30;;;;;;5057856;28;20284;-83
2022/03/12 10:31:19;;;;;;;10.30;10.00;;;8.20;75.90;;;;;;5060088;28;20231;-83
2022/03/12 10:33:58;;;;;;;10.20;9.90;;;8.50;76.40;;;;;;5058886;28;20255;-83
2022/03/12 10:39:33;;;;;;;10.10;9.80;;;8.70;75.60;;;;;;5051332;28;20223;-81
2022/03/12 10:42:14;;;;;;;10.13;9.83;;;8.80;75.30;;;;;;5057610;28;20215;-79
2022/03/12 10:44:48;;;;;;;10.30;10.00;;;9.10;74.80;;;;;;5059387;28;20215;-79
2022/03/12 10:47:26;;;;;;;10.10;9.80;;;9.50;75.00;;;;;;5058529;28;20231;-81
2022/03/12 10:50:05;;;;;;;10.20;9.90;;;10.40;75.30;;;;;;5050193;28;20227;-82
2022/03/12 10:53:05;;;;;;;9.90;9.60;;;10.70;73.60;;;;;;5048339;28;20255;-81
2022/03/12 10:56:16;;;;;;;10.00;9.70;;;10.80;73.30;;;;;;5047432;28;20249;-81
2022/03/12 10:58:44;;;;;;;10.10;9.80;;;10.80;71.00;;;;;;5051847;28;20208;-81
2022/03/12 11:01:39;;;;;;;10.17;9.87;;;11.00;72.20;;;;;;5059691;28;20212;-82
2022/03/12 11:04:27;;;;;;;10.20;9.90;;;11.40;72.00;;;;;;5054748;28;20236;-83
2022/03/12 11:10:37;;;;;;;10.20;9.90;;;12.20;70.70;;;;;;5046736;28;20239;-82
2022/03/12 11:17:01;;;;;;;10.23;9.93;;;12.00;70.70;;;;;;5049216;28;20230;-84
2022/03/12 11:20:25;;;;;;;10.27;9.97;;;12.40;70.70;;;;;;5050239;28;20238;-83
2022/03/12 11:23:32;;;;;;;10.23;9.93;;;12.60;68.70;;;;;;5044589;28;20266;-84
2022/03/12 11:44:29;;;;;;;10.60;10.30;;;13.20;70.40;;;;;;4829394;28;20238;-84
2022/03/12 11:47:14;;;;;;;11.00;10.70;;;13.40;68.30;;;;;;5046474;28;20297;-84
2022/03/12 11:49:55;;;;;;;10.30;10.00;;;13.90;69.10;;;;;;5045057;28;20291;-84
2022/03/12 12:00:25;;;;;;;10.57;10.27;;;13.80;68.90;;;;;;4988800;28;20232;-84
2022/03/12 12:06:18;;;;;;;;;;;;;;;;;;;;;
2022/03/12 12:09:30;;;;;;;10.37;10.07;;;14.20;68.30;;;;;;5024582;28;20227;-85
2022/03/12 12:12:37;;;;;;;10.67;10.37;;;14.80;68.00;;;;;;5023549;28;20267;-83
2022/03/12 12:15:22;;;;;;;10.47;10.17;;;14.20;67.80;;;;;;5023921;28;20228;-84
2022/03/12 12:20:40;;;;;;;10.10;9.80;;;13.90;69.00;;;;;;5024220;28;20224;-85
2022/03/12 12:23:17;;;;;;;10.10;9.80;;;14.00;67.30;;;;;;5025226;28;20228;-84
2022/03/12 12:37:58;;;;;;;10.48;10.18;;;15.60;68.10;;;;;;5024497;28;20227;-85
2022/03/12 12:40:54;;;;;;;10.00;9.70;;;16.00;67.90;;;;;;5056703;28;20216;-84
2022/03/12 12:47:42;;;;;;;9.80;9.50;;;15.60;67.30;;;;;;5009750;28;20224;-82
2022/03/12 12:50:30;;;;;;;10.00;9.70;;;15.60;66.80;;;;;;5000491;28;20225;-82
2022/03/12 12:53:30;;;;;;;9.90;9.60;;;15.70;67.50;;;;;;4980837;28;20396;-82
2022/03/12 12:56:21;;;;;;;10.10;9.80;;;16.20;66.50;;;;;;5030129;28;20323;-83
2022/03/12 12:59:14;;;;;;;10.00;9.70;;;16.70;65.80;;;;;;5024968;28;20314;-82
2022/03/12 14:33:26;;;;;;;9.98;9.68;;;17.60;64.10;;;;;;4860382;29;20217;-90
2022/03/12 18:29:28;;;;;;;9.23;8.93;;;8.90;80.60;;;;;;4981772;28;20245;-86
2022/03/12 18:38:46;;;;;;;9.00;8.80;;;8.70;81.60;;;;;;4897179;28;20236;-85
2022/03/12 18:41:43;;;;;;;9.20;8.90;;;8.60;81.50;;;;;;4983641;28;20280;-85
2022/03/12 18:51:25;;;;;;;9.17;8.90;;;8.30;81.90;;;;;;5006311;28;20331;-86
2022/03/12 19:11:21;;;;;;;9.23;8.93;;;7.80;83.70;;;;;;4984134;28;20344;-85
2022/03/12 19:18:05;;;;;;;9.23;8.93;;;7.60;84.10;;;;;;4980544;28;20234;-86
2022/03/12 19:21:13;;;;;;;9.20;8.90;;;7.50;84.20;;;;;;4992461;28;20244;-85
2022/03/12 19:41:31;;;;;;;9.00;8.80;;;7.20;85.20;;;;;;4941465;28;20233;-86
2022/03/12 19:44:42;;;;;;;8.90;8.70;;;7.20;85.60;;;;;;4986850;28;20233;-86
2022/03/12 19:58:38;;;;;;;9.27;8.97;;;6.90;87.90;;;;;;4980992;28;20254;-85
2022/03/12 20:08:02;;;;;;;8.77;8.57;;;6.50;88.50;;;;;;5028164;22;20240;-85
2022/03/12 20:14:23;;;;;;;8.93;8.73;;;6.30;86.60;;;;;;5005235;28;20243;-86
2022/03/12 20:17:43;;;;;;;8.90;8.70;;;6.20;86.80;;;;;;4970149;28;20229;-86
2022/03/12 20:21:02;;;;;;;9.20;8.90;;;6.10;86.90;;;;;;5002281;28;20288;-86
2022/03/12 20:43:38;;;;;;;9.30;9.00;;;5.40;89.60;;;;;;4976431;28;20228;-87
2022/03/12 20:50:02;;;;;;;9.20;8.90;;;4.90;90.40;;;;;;5004643;28;20310;-86
2022/03/12 20:53:15;;;;;;;9.30;9.00;;;4.70;90.40;;;;;;5005094;28;20237;-86
2022/03/12 20:59:11;;;;;;;9.40;9.10;;;4.60;90.50;;;;;;4982352;28;20232;-86
2022/03/12 21:02:24;;;;;;;9.30;9.00;;;4.60;90.50;;;;;;5006181;28;20327;-85
2022/03/12 21:08:41;;;;;;;9.30;9.00;;;4.50;90.50;;;;;;5003554;28;20251;-86
2022/03/12 21:18:14;;;;;;;9.40;9.10;;;4.50;90.80;;;;;;5002295;28;20221;-86
2022/03/12 21:21:43;;;;;;;9.23;8.93;;;4.50;90.60;;;;;;5004697;28;20251;-85
2022/03/12 21:25:09;;;;;;;9.20;8.90;;;4.50;90.60;;;;;;5009425;28;20236;-86
2022/03/12 21:42:47;;;;;;;;;;;;;;;;;;;;;
2022/03/12 21:46:19;;;;;;;;;;;;;;;;;;;;;
2022/03/12 21:56:49;;;;;;;;;;;;;;;;;;;;;
2022/03/12 22:03:55;;;;;;;9.40;9.10;;;4.30;91.10;;;;;;4924765;28;20811;-86
2022/03/12 22:10:41;;;;;;;;;;;;;;;;;;;;;
2022/03/12 22:14:23;;;;;;;9.67;9.37;;;4.00;93.60;;;;;;5004691;28;20241;-86
2022/03/12 22:31:07;;;;;;;9.63;9.33;;;3.00;92.50;;;;;;5021976;28;20221;-86
2022/03/12 22:39:41;;;;;;;9.90;9.60;;;2.80;92.30;;;;;;5005814;28;20248;-87
2022/03/12 22:42:54;;;;;;;9.70;9.40;;;2.90;92.30;;;;;;5005965;28;20237;-86
2022/03/12 23:00:28;;;;;;;9.70;9.40;;;2.70;92.10;;;;;;4994260;28;20267;-86
2022/03/12 23:13:14;;;;;;;9.67;9.37;;;2.60;91.90;;;;;;4989429;28;20229;-84
2022/03/12 23:34:19;;;;;;;9.77;9.47;;;2.40;92.10;;;;;;4870471;29;20244;-85
2022/03/12 23:46:56;;;;;;;10.20;9.90;;;2.30;92.30;;;;;;4952945;28;20450;-82
2022/03/12 23:49:34;;;;;;;10.17;9.87;;;2.40;93.10;;;;;;5003557;28;20292;-82
2022/03/12 23:52:30;;;;;;;10.10;9.80;;;2.50;92.60;;;;;;5003927;28;20241;-81
2022/03/12 23:55:07;;;;;;;9.90;9.60;;;2.50;92.70;;;;;;5002950;28;20271;-82
2022/03/12 23:57:39;;;;;;;9.77;9.47;;;2.50;92.50;;;;;;5002760;28;20240;-83
